Time;durP1;ratioP1;P1;durP2;ratioP2;P2;SDS_P1;SDS_P2;PMS_P1;PMS_P2;Temp;Humidity;BMP_temperature;BMP_pressure;BME280_temperature;BME280_humidity;BME280_pressure;Samples;Min_cycle;Max_cycle;Signal;HPM_P1;HPM_P2
2023/06/28 00:00:01;;;;;;;8.23;3.78;;;18.50;93.20;;;;;;6245020;22;20027;-84
2023/06/28 00:02:27;;;;;;;7.35;3.63;;;18.60;93.30;;;;;;6246024;22;20089;-84
2023/06/28 00:04:53;;;;;;;6.72;4.07;;;18.60;93.40;;;;;;6273296;22;20059;-83
2023/06/28 00:07:18;;;;;;;8.23;3.75;;;18.50;93.50;;;;;;6274900;22;20000;-84
2023/06/28 00:09:44;;;;;;;6.20;3.45;;;18.50;93.60;;;;;;6247163;22;20003;-84
2023/06/28 00:12:09;;;;;;;8.45;4.25;;;18.50;93.60;;;;;;6246562;22;20074;-84
2023/06/28 00:14:35;;;;;;;9.32;4.00;;;18.50;93.70;;;;;;6274106;22;20425;-83
2023/06/28 00:17:00;;;;;;;10.20;4.22;;;18.50;93.80;;;;;;6246756;22;20026;-85
2023/06/28 00:19:29;;;;;;;7.65;2.90;;;18.50;93.90;;;;;;6248981;22;20072;-85
2023/06/28 00:21:55;;;;;;;7.75;3.30;;;18.50;93.90;;;;;;6247004;22;20073;-85
2023/06/28 00:24:21;;;;;;;7.50;4.05;;;18.50;93.90;;;;;;6245545;22;20095;-85
2023/06/28 00:26:47;;;;;;;8.60;4.22;;;18.50;93.90;;;;;;6245250;22;20327;-84
2023/06/28 00:29:13;;;;;;;9.73;4.95;;;18.50;94.00;;;;;;6273844;22;20011;-84
2023/06/28 00:31:39;;;;;;;8.52;3.78;;;18.40;94.10;;;;;;6247297;22;20003;-84
2023/06/28 00:34:04;;;;;;;7.88;3.13;;;18.50;94.50;;;;;;6274146;22;20086;-84
2023/06/28 00:36:30;;;;;;;9.20;4.05;;;18.40;94.20;;;;;;6272854;22;20409;-85
2023/06/28 00:38:56;;;;;;;7.20;4.13;;;18.40;94.20;;;;;;6272370;22;20087;-84
2023/06/28 00:41:21;;;;;;;9.40;3.15;;;18.40;94.30;;;;;;6244949;22;20433;-84
2023/06/28 00:43:47;;;;;;;8.18;3.80;;;18.40;94.40;;;;;;6272799;22;20053;-85
2023/06/28 00:46:12;;;;;;;6.07;3.33;;;18.40;94.40;;;;;;6272630;22;20036;-85
2023/06/28 00:48:38;;;;;;;8.18;3.13;;;18.40;94.50;;;;;;6272596;22;20322;-84
2023/06/28 00:51:05;;;;;;;6.00;2.92;;;18.30;94.50;;;;;;6272777;22;20028;-84
2023/06/28 00:53:31;;;;;;;7.43;3.33;;;18.30;94.50;;;;;;6272944;22;20004;-85
2023/06/28 00:55:57;;;;;;;8.13;3.20;;;18.30;94.60;;;;;;6244816;22;20417;-84
2023/06/28 00:58:25;;;;;;;6.70;3.83;;;18.30;94.70;;;;;;6272496;22;20075;-84
2023/06/28 01:00:50;;;;;;;4.75;2.75;;;18.30;94.70;;;;;;6245147;22;20069;-85
2023/06/28 01:03:18;;;;;;;7.40;3.60;;;18.30;94.80;;;;;;6244774;22;19999;-84
2023/06/28 01:05:46;;;;;;;8.85;3.15;;;18.30;94.80;;;;;;6245507;22;20000;-83
2023/06/28 01:08:13;;;;;;;6.53;3.25;;;18.40;94.80;;;;;;6244878;22;20003;-84
2023/06/28 01:10:39;;;;;;;4.70;3.45;;;18.30;94.90;;;;;;6244556;22;20007;-84
2023/06/28 01:13:06;;;;;;;10.55;3.63;;;18.30;94.80;;;;;;6244762;22;20567;-83
2023/06/28 01:15:31;;;;;;;8.18;2.88;;;18.30;94.90;;;;;;6244953;22;20000;-83
2023/06/28 01:18:00;;;;;;;7.80;3.35;;;18.30;94.90;;;;;;6243945;22;20091;-83
2023/06/28 01:20:26;;;;;;;9.35;3.25;;;18.40;94.90;;;;;;6271693;22;20000;-82
2023/06/28 01:22:55;;;;;;;8.85;3.00;;;18.30;94.80;;;;;;6244612;22;20022;-82
2023/06/28 01:25:21;;;;;;;4.63;3.00;;;18.40;94.80;;;;;;6243863;22;20008;-83
2023/06/28 01:27:48;;;;;;;7.72;3.13;;;18.30;94.80;;;;;;6271340;22;19999;-83
2023/06/28 01:30:17;;;;;;;7.95;3.75;;;18.30;94.80;;;;;;6244531;22;20004;-83
2023/06/28 01:32:43;;;;;;;7.43;3.20;;;18.30;94.90;;;;;;6244306;22;20003;-83
2023/06/28 01:35:10;;;;;;;8.65;2.75;;;18.30;94.80;;;;;;6244527;22;20091;-83
2023/06/28 01:37:38;;;;;;;7.13;3.67;;;18.30;94.80;;;;;;6244099;22;20069;-83
2023/06/28 01:40:05;;;;;;;10.80;3.83;;;18.30;95.00;;;;;;6244102;22;20034;-83
2023/06/28 01:42:33;;;;;;;7.25;3.20;;;18.30;95.10;;;;;;6271502;22;19995;-83
2023/06/28 01:44:59;;;;;;;7.75;3.10;;;18.30;95.20;;;;;;6244124;22;20368;-83
2023/06/28 01:47:25;;;;;;;7.15;3.60;;;18.30;95.40;;;;;;6244504;22;20011;-82
2023/06/28 01:49:50;;;;;;;7.90;3.47;;;18.30;95.60;;;;;;6243405;22;20003;-83
2023/06/28 01:52:16;;;;;;;7.93;3.65;;;18.30;95.60;;;;;;6244203;22;20010;-84
2023/06/28 01:54:42;;;;;;;10.65;3.75;;;18.30;95.90;;;;;;6272399;22;20006;-82
2023/06/28 01:57:08;;;;;;;7.75;4.30;;;18.30;96.10;;;;;;6271769;22;20375;-84
2023/06/28 01:59:33;;;;;;;8.52;4.68;;;18.30;96.40;;;;;;6272091;22;20031;-83
2023/06/28 02:01:59;;;;;;;8.52;4.32;;;18.20;96.70;;;;;;6272125;22;20071;-84
2023/06/28 02:04:24;;;;;;;12.20;4.53;;;18.20;96.90;;;;;;6272739;22;20090;-83
2023/06/28 02:06:50;;;;;;;6.35;3.92;;;18.20;97.10;;;;;;6245007;22;20004;-85
2023/06/28 02:09:16;;;;;;;11.13;4.07;;;18.20;97.30;;;;;;6243839;22;20018;-84
2023/06/28 02:11:41;;;;;;;6.18;4.63;;;18.20;97.40;;;;;;6272192;22;20000;-84
2023/06/28 02:14:07;;;;;;;7.82;3.65;;;18.20;97.60;;;;;;6244375;22;20307;-85
2023/06/28 02:16:32;;;;;;;8.15;3.67;;;18.10;97.70;;;;;;6244775;22;20058;-84
2023/06/28 02:19:01;;;;;;;9.63;3.78;;;18.10;97.70;;;;;;6271482;22;20026;-84
2023/06/28 02:21:26;;;;;;;7.35;4.10;;;18.10;97.80;;;;;;6244123;22;20010;-83
2023/06/28 02:23:52;;;;;;;7.15;3.70;;;18.10;97.80;;;;;;6272223;22;20091;-83
2023/06/28 02:26:18;;;;;;;8.02;3.38;;;18.10;97.90;;;;;;6272037;22;19999;-81
2023/06/28 02:28:43;;;;;;;5.88;3.47;;;18.00;97.90;;;;;;6244705;22;20042;-84
2023/06/28 02:31:09;;;;;;;9.48;3.92;;;18.00;98.00;;;;;;6271739;22;20418;-84
2023/06/28 02:33:34;;;;;;;10.63;4.47;;;18.00;98.10;;;;;;6244809;22;20406;-84
2023/06/28 02:36:00;;;;;;;6.97;3.95;;;18.00;98.30;;;;;;6273633;22;20274;-83
2023/06/28 02:38:26;;;;;;;10.13;3.47;;;18.00;98.50;;;;;;6274491;22;20008;-83
2023/06/28 02:40:52;;;;;;;8.38;3.80;;;18.00;98.50;;;;;;6244616;22;20008;-83
2023/06/28 02:43:17;;;;;;;7.80;3.72;;;17.90;98.70;;;;;;6244213;22;20011;-84
2023/06/28 02:45:43;;;;;;;4.80;3.17;;;17.90;98.70;;;;;;6272409;22;19996;-84
2023/06/28 02:48:08;;;;;;;6.40;3.30;;;17.90;98.80;;;;;;6246320;22;20011;-83
2023/06/28 02:50:34;;;;;;;10.68;3.58;;;17.90;98.80;;;;;;6272793;22;20000;-83
2023/06/28 02:53:00;;;;;;;6.10;3.05;;;17.90;98.90;;;;;;6244360;22;20090;-82
2023/06/28 02:55:25;;;;;;;9.90;3.83;;;17.80;98.90;;;;;;6244471;22;20011;-81
2023/06/28 02:57:52;;;;;;;4.35;3.30;;;17.80;99.00;;;;;;6244351;22;20011;-81
2023/06/28 03:00:17;;;;;;;5.50;3.65;;;17.80;99.10;;;;;;6243947;22;20066;-81
2023/06/28 03:02:43;;;;;;;8.90;3.88;;;17.80;99.20;;;;;;6244346;22;20004;-81
2023/06/28 03:05:09;;;;;;;5.20;3.50;;;17.70;99.30;;;;;;6270715;22;20444;-82
2023/06/28 03:07:34;;;;;;;5.18;3.80;;;17.70;99.20;;;;;;6244471;22;20325;-82
2023/06/28 03:10:00;;;;;;;5.90;4.05;;;17.70;99.30;;;;;;6271338;22;19995;-81
2023/06/28 03:12:25;;;;;;;6.57;3.67;;;17.60;99.40;;;;;;6271454;22;20137;-82
2023/06/28 03:14:51;;;;;;;9.13;3.97;;;17.60;99.60;;;;;;6244445;22;20010;-82
2023/06/28 03:17:19;;;;;;;9.38;3.80;;;17.60;99.80;;;;;;6243873;22;20029;-82
2023/06/28 03:19:45;;;;;;;9.15;4.47;;;17.60;99.90;;;;;;6243781;22;20341;-82
2023/06/28 03:22:10;;;;;;;7.25;3.95;;;17.60;99.90;;;;;;6243978;22;20004;-81
2023/06/28 03:24:36;;;;;;;11.93;4.65;;;17.60;99.90;;;;;;6244331;22;20430;-82
2023/06/28 03:27:02;;;;;;;7.53;5.05;;;17.50;99.90;;;;;;6243892;22;20420;-81
2023/06/28 03:29:28;;;;;;;8.52;4.97;;;17.50;99.90;;;;;;6244211;22;20030;-82
2023/06/28 03:31:55;;;;;;;8.85;4.55;;;17.50;99.90;;;;;;6246104;22;20027;-81
2023/06/28 03:34:20;;;;;;;8.00;4.15;;;17.50;99.90;;;;;;6272786;22;20000;-82
2023/06/28 03:36:47;;;;;;;9.38;3.95;;;17.50;99.90;;;;;;6273510;22;20007;-82
2023/06/28 03:39:13;;;;;;;6.22;3.88;;;17.50;99.90;;;;;;6245650;22;20455;-82
2023/06/28 03:41:39;;;;;;;7.85;4.50;;;17.50;99.90;;;;;;6245798;22;20004;-82
2023/06/28 03:44:05;;;;;;;8.65;4.18;;;17.60;99.90;;;;;;6245740;22;20046;-82
2023/06/28 03:46:31;;;;;;;10.52;4.55;;;17.50;99.90;;;;;;6247398;22;20004;-82
2023/06/28 03:48:56;;;;;;;6.07;4.63;;;17.60;99.90;;;;;;6246119;22;20077;-82
2023/06/28 03:51:22;;;;;;;7.85;3.53;;;17.50;99.90;;;;;;6273873;22;20008;-83
2023/06/28 03:53:47;;;;;;;7.53;3.95;;;17.50;99.90;;;;;;6246900;22;20000;-82
2023/06/28 03:56:14;;;;;;;7.47;3.83;;;17.60;99.90;;;;;;6273086;22;20671;-81
2023/06/28 03:58:40;;;;;;;7.65;3.85;;;17.60;99.90;;;;;;6273597;22;20011;-81
2023/06/28 04:01:06;;;;;;;6.15;3.67;;;17.60;99.90;;;;;;6245384;22;20027;-81
2023/06/28 04:03:31;;;;;;;7.30;3.17;;;17.50;99.90;;;;;;6272963;22;20006;-82
2023/06/28 04:05:57;;;;;;;4.68;2.47;;;17.50;99.90;;;;;;6273509;22;20004;-82
2023/06/28 04:08:26;;;;;;;6.00;3.13;;;17.50;99.90;;;;;;6247697;22;20004;-82
2023/06/28 04:10:53;;;;;;;5.43;2.97;;;17.50;99.90;;;;;;6245667;22;20422;-81
2023/06/28 04:13:19;;;;;;;5.53;3.15;;;17.50;99.90;;;;;;6273044;22;20000;-82
2023/06/28 04:15:44;;;;;;;4.75;2.60;;;17.50;99.90;;;;;;6273066;22;20326;-81
2023/06/28 04:18:10;;;;;;;5.28;3.47;;;17.50;99.90;;;;;;6244953;22;20004;-81
2023/06/28 04:20:36;;;;;;;10.60;3.25;;;17.40;99.90;;;;;;6245446;22;20441;-82
2023/06/28 04:23:01;;;;;;;8.32;3.60;;;17.40;99.90;;;;;;6245506;22;20008;-81
2023/06/28 04:25:27;;;;;;;9.20;3.17;;;17.40;99.90;;;;;;6272575;22;20003;-81
2023/06/28 04:27:53;;;;;;;6.88;3.58;;;17.50;99.90;;;;;;6245306;22;20007;-81
2023/06/28 04:30:18;;;;;;;8.40;3.63;;;17.50;99.90;;;;;;6245346;22;20429;-81
2023/06/28 04:32:45;;;;;;;6.05;2.70;;;17.50;99.90;;;;;;6245190;22;20078;-81
2023/06/28 04:35:11;;;;;;;5.07;2.92;;;17.50;99.90;;;;;;6244998;22;19999;-81
2023/06/28 04:37:38;;;;;;;5.13;3.03;;;17.50;99.90;;;;;;6245435;22;20008;-80
2023/06/28 04:40:04;;;;;;;8.05;3.70;;;17.50;99.90;;;;;;6244920;22;20493;-81
2023/06/28 04:42:30;;;;;;;3.92;3.22;;;17.50;99.90;;;;;;6245006;22;20437;-81
2023/06/28 04:44:59;;;;;;;5.60;3.50;;;17.50;99.90;;;;;;6244938;22;20015;-81
2023/06/28 04:47:28;;;;;;;6.80;3.90;;;17.60;99.90;;;;;;6244732;22;19999;-81
2023/06/28 04:49:57;;;;;;;10.30;4.53;;;17.60;99.90;;;;;;6244744;22;20022;-80
2023/06/28 04:52:24;;;;;;;6.07;3.38;;;17.60;99.90;;;;;;6272565;22;20022;-81
2023/06/28 04:54:50;;;;;;;10.57;3.53;;;17.60;99.90;;;;;;6245300;22;20004;-81
2023/06/28 04:57:17;;;;;;;7.07;4.38;;;17.60;99.90;;;;;;6272153;22;20038;-80
2023/06/28 04:59:43;;;;;;;9.52;3.83;;;17.60;99.90;;;;;;6245104;22;20094;-81
2023/06/28 05:02:09;;;;;;;7.15;4.20;;;17.60;99.90;;;;;;6272493;22;20341;-80
2023/06/28 05:04:37;;;;;;;11.05;3.97;;;17.50;99.90;;;;;;6246758;22;20008;-81
2023/06/28 05:07:04;;;;;;;9.68;4.20;;;17.60;99.90;;;;;;6245947;22;20082;-81
2023/06/28 05:09:31;;;;;;;8.95;5.15;;;17.60;99.90;;;;;;6245179;22;20015;-81
2023/06/28 05:11:58;;;;;;;8.55;3.75;;;17.60;99.90;;;;;;6244842;22;20022;-81
2023/06/28 05:14:25;;;;;;;8.48;4.38;;;17.60;99.90;;;;;;6272327;22;20422;-81
2023/06/28 05:16:51;;;;;;;11.30;5.05;;;17.60;99.90;;;;;;6246769;22;20480;-81
2023/06/28 05:19:17;;;;;;;6.03;4.65;;;17.60;99.90;;;;;;6271326;22;20456;-82
2023/06/28 05:21:42;;;;;;;7.95;5.30;;;17.60;99.90;;;;;;6272303;22;20000;-82
2023/06/28 05:24:08;;;;;;;11.00;5.28;;;17.70;99.90;;;;;;6244178;22;20596;-81
2023/06/28 05:26:33;;;;;;;7.30;5.20;;;17.70;99.90;;;;;;6244994;22;20132;-81
2023/06/28 05:28:59;;;;;;;7.53;5.30;;;17.70;99.90;;;;;;6271971;22;19999;-82
2023/06/28 05:31:24;;;;;;;9.75;5.55;;;17.70;99.90;;;;;;6244491;22;20038;-81
2023/06/28 05:33:50;;;;;;;10.18;4.90;;;17.70;99.90;;;;;;6245044;22;20008;-82
2023/06/28 05:36:18;;;;;;;10.43;6.38;;;17.70;99.90;;;;;;6271872;22;20074;-82
2023/06/28 05:38:44;;;;;;;10.45;6.05;;;17.80;99.90;;;;;;6245056;22;20037;-81
2023/06/28 05:41:14;;;;;;;8.75;6.28;;;17.80;99.90;;;;;;6271880;22;20080;-82
2023/06/28 05:43:43;;;;;;;12.25;6.07;;;17.80;99.90;;;;;;6244744;22;20082;-81
2023/06/28 05:46:08;;;;;;;7.55;6.05;;;17.80;99.90;;;;;;6244151;22;20007;-81
2023/06/28 05:48:34;;;;;;;9.32;5.97;;;17.80;99.90;;;;;;6244726;22;20007;-82
2023/06/28 05:50:59;;;;;;;11.15;6.65;;;17.80;99.90;;;;;;6244622;22;20038;-82
2023/06/28 05:53:25;;;;;;;12.00;5.82;;;17.90;99.90;;;;;;6244637;22;20073;-82
2023/06/28 05:55:51;;;;;;;7.85;5.63;;;17.80;99.90;;;;;;6272005;22;20026;-82
2023/06/28 05:58:18;;;;;;;13.20;6.53;;;17.90;99.90;;;;;;6244127;22;20436;-82
2023/06/28 06:00:43;;;;;;;10.55;6.00;;;17.90;99.90;;;;;;6243936;22;20015;-81
2023/06/28 06:03:09;;;;;;;10.98;6.82;;;17.80;99.90;;;;;;6244390;22;20006;-81
2023/06/28 06:05:36;;;;;;;10.55;6.88;;;17.80;99.90;;;;;;6244672;22;20004;-82
2023/06/28 06:08:02;;;;;;;9.10;6.05;;;17.80;99.90;;;;;;6244230;22;20094;-83
2023/06/28 06:10:27;;;;;;;8.30;5.72;;;17.80;99.90;;;;;;6244724;22;20382;-83
2023/06/28 06:12:54;;;;;;;9.38;6.68;;;17.80;99.90;;;;;;6244357;22;20053;-81
2023/06/28 06:15:20;;;;;;;9.95;6.05;;;17.80;99.90;;;;;;6244188;22;20426;-82
2023/06/28 06:17:46;;;;;;;13.07;6.63;;;17.80;99.90;;;;;;6244861;22;20085;-82
2023/06/28 06:20:15;;;;;;;10.95;6.47;;;17.80;99.90;;;;;;6244359;22;20003;-82
2023/06/28 06:22:44;;;;;;;9.93;6.38;;;17.90;99.90;;;;;;6244792;22;20004;-82
2023/06/28 06:25:09;;;;;;;9.98;6.75;;;17.90;99.90;;;;;;6244070;22;20012;-82
2023/06/28 06:27:36;;;;;;;11.82;6.22;;;17.90;99.90;;;;;;6271166;22;20103;-82
2023/06/28 06:30:03;;;;;;;10.70;6.53;;;17.90;99.90;;;;;;6271538;22;20038;-82
2023/06/28 06:32:28;;;;;;;11.95;7.50;;;17.90;99.90;;;;;;6271834;22;20367;-82
2023/06/28 06:34:57;;;;;;;10.98;8.18;;;18.00;99.90;;;;;;6244275;22;20031;-81
2023/06/28 06:37:26;;;;;;;9.48;6.72;;;18.00;99.90;;;;;;6244629;22;20100;-82
2023/06/28 06:39:53;;;;;;;13.20;7.90;;;18.00;99.90;;;;;;6244678;22;20011;-82
2023/06/28 06:42:19;;;;;;;15.60;8.27;;;18.00;99.90;;;;;;6243990;22;20043;-82
2023/06/28 06:44:45;;;;;;;14.30;8.27;;;18.00;99.90;;;;;;6244416;22;20082;-82
2023/06/28 06:47:10;;;;;;;16.17;8.50;;;18.00;99.90;;;;;;6271424;22;20020;-82
2023/06/28 06:49:36;;;;;;;13.10;7.07;;;17.90;99.90;;;;;;6244136;22;20487;-81
2023/06/28 06:52:02;;;;;;;10.07;8.63;;;17.90;99.90;;;;;;6244115;22;20004;-82
2023/06/28 06:54:29;;;;;;;12.23;8.57;;;17.90;99.90;;;;;;6244454;22;20028;-81
2023/06/28 06:56:56;;;;;;;14.50;8.52;;;17.90;99.90;;;;;;6243627;22;20008;-82
2023/06/28 06:59:23;;;;;;;16.88;9.48;;;17.90;99.90;;;;;;6244620;22;20012;-82
2023/06/28 07:01:50;;;;;;;9.40;7.85;;;18.00;99.90;;;;;;6244394;22;20398;-81
2023/06/28 07:04:16;;;;;;;9.80;8.30;;;18.10;99.90;;;;;;6244147;22;20453;-81
2023/06/28 07:06:44;;;;;;;13.88;8.90;;;18.20;99.90;;;;;;6273740;22;20000;-82
2023/06/28 07:09:10;;;;;;;13.93;8.05;;;18.30;99.90;;;;;;6245857;22;20090;-81
2023/06/28 07:11:36;;;;;;;15.27;9.40;;;18.30;99.90;;;;;;6245593;22;20361;-82
2023/06/28 07:14:01;;;;;;;13.27;9.57;;;18.40;99.90;;;;;;6245875;22;20083;-82
2023/06/28 07:16:27;;;;;;;11.25;9.48;;;18.40;99.90;;;;;;6246285;22;20000;-81
2023/06/28 07:18:54;;;;;;;15.93;9.88;;;18.50;99.90;;;;;;6273759;22;20038;-81
2023/06/28 07:21:20;;;;;;;9.07;7.82;;;18.50;99.90;;;;;;6274396;22;20019;-82
2023/06/28 07:23:46;;;;;;;12.00;8.00;;;18.60;99.90;;;;;;6248104;22;20007;-82
2023/06/28 07:26:14;;;;;;;17.20;9.35;;;18.60;99.90;;;;;;6245249;22;20090;-82
2023/06/28 07:28:40;;;;;;;15.30;9.65;;;18.60;99.90;;;;;;6247032;22;20019;-82
2023/06/28 07:31:05;;;;;;;15.07;10.07;;;18.70;99.90;;;;;;6275006;22;20023;-81
2023/06/28 07:33:31;;;;;;;11.85;7.85;;;18.60;99.90;;;;;;6273496;22;19996;-82
2023/06/28 07:35:57;;;;;;;14.32;9.82;;;18.70;99.90;;;;;;6247318;22;20505;-82
2023/06/28 07:38:23;;;;;;;16.00;9.55;;;18.70;99.90;;;;;;6247916;22;20008;-81
2023/06/28 07:40:49;;;;;;;14.48;9.20;;;18.70;99.90;;;;;;6248054;22;20030;-80
2023/06/28 07:43:16;;;;;;;14.38;9.18;;;18.70;99.90;;;;;;6246496;22;20007;-82
2023/06/28 07:45:42;;;;;;;15.10;9.77;;;18.80;99.90;;;;;;6273885;22;19999;-82
2023/06/28 07:48:09;;;;;;;14.63;9.18;;;18.90;99.90;;;;;;6272833;22;20214;-82
2023/06/28 07:50:35;;;;;;;15.23;9.00;;;19.00;99.90;;;;;;6273189;22;20000;-82
2023/06/28 07:53:00;;;;;;;14.20;9.45;;;19.00;99.90;;;;;;6272647;22;20026;-82
2023/06/28 07:55:28;;;;;;;17.75;8.90;;;19.10;99.90;;;;;;6245318;22;20426;-82
2023/06/28 07:57:55;;;;;;;11.30;9.15;;;19.10;99.90;;;;;;6272734;22;20375;-83
2023/06/28 08:00:20;;;;;;;14.10;9.18;;;19.20;99.90;;;;;;6272752;22;20061;-82
2023/06/28 08:02:46;;;;;;;14.15;8.73;;;19.20;99.90;;;;;;6245942;22;20336;-82
2023/06/28 08:05:11;;;;;;;9.40;8.48;;;19.20;99.90;;;;;;6272663;22;20503;-81
2023/06/28 08:07:37;;;;;;;15.95;8.57;;;19.20;99.90;;;;;;6245558;22;20376;-82
2023/06/28 08:10:04;;;;;;;14.35;7.82;;;19.30;99.90;;;;;;6271973;22;20050;-81
2023/06/28 08:12:30;;;;;;;14.63;9.18;;;19.30;99.90;;;;;;6245541;22;19999;-82
2023/06/28 08:14:55;;;;;;;16.02;8.15;;;19.30;99.90;;;;;;6245103;22;20401;-82
2023/06/28 08:17:21;;;;;;;15.52;7.93;;;19.30;99.90;;;;;;6245478;22;19999;-82
2023/06/28 08:19:47;;;;;;;13.10;8.43;;;19.40;99.90;;;;;;6245522;22;20369;-82
2023/06/28 08:22:12;;;;;;;14.77;7.88;;;19.40;99.90;;;;;;6272548;22;20000;-82
2023/06/28 08:24:39;;;;;;;14.98;8.70;;;19.40;99.90;;;;;;6245059;22;19999;-82
2023/06/28 08:27:06;;;;;;;11.60;8.50;;;19.50;99.90;;;;;;6245381;22;20481;-82
2023/06/28 08:29:31;;;;;;;10.77;8.18;;;19.40;99.90;;;;;;6272514;22;20413;-81
2023/06/28 08:31:57;;;;;;;12.15;8.45;;;19.40;99.90;;;;;;6245175;22;20053;-82
2023/06/28 08:34:22;;;;;;;12.43;8.23;;;19.50;99.90;;;;;;6272638;22;19995;-82
2023/06/28 08:36:48;;;;;;;12.18;7.72;;;19.50;99.90;;;;;;6245644;22;20032;-82
2023/06/28 08:39:14;;;;;;;12.20;8.55;;;19.50;99.90;;;;;;6244682;22;20087;-82
2023/06/28 08:41:40;;;;;;;14.55;8.35;;;19.40;99.90;;;;;;6245442;22;20004;-82
2023/06/28 08:44:12;;;;;;;10.15;8.43;;;19.50;99.90;;;;;;6244852;22;20035;-82
2023/06/28 08:46:39;;;;;;;11.40;8.05;;;19.50;99.90;;;;;;6245091;22;20000;-82
2023/06/28 08:49:06;;;;;;;13.27;8.43;;;19.50;99.90;;;;;;6271900;22;20376;-81
2023/06/28 08:51:32;;;;;;;11.07;7.63;;;19.60;99.90;;;;;;6272314;22;20006;-82
2023/06/28 08:53:58;;;;;;;12.88;8.48;;;19.60;99.90;;;;;;6271567;22;20003;-82
2023/06/28 08:56:25;;;;;;;15.55;9.23;;;19.70;99.90;;;;;;6245278;22;20000;-83
2023/06/28 08:58:52;;;;;;;15.70;9.77;;;19.70;99.90;;;;;;6245098;22;20049;-81
2023/06/28 09:01:24;;;;;;;14.98;9.02;;;19.70;99.90;;;;;;6244867;22;20469;-81
2023/06/28 09:03:50;;;;;;;15.80;8.23;;;19.80;99.90;;;;;;6244851;22;20079;-81
2023/06/28 09:06:16;;;;;;;10.35;7.40;;;19.90;99.90;;;;;;6244208;22;20004;-81
2023/06/28 09:08:43;;;;;;;13.35;8.20;;;19.90;99.90;;;;;;6271796;22;20329;-82
2023/06/28 09:11:10;;;;;;;10.88;8.32;;;19.90;99.90;;;;;;6244471;22;20007;-81
2023/06/28 09:13:37;;;;;;;15.02;8.77;;;20.00;99.90;;;;;;6272122;22;19996;-82
2023/06/28 09:16:05;;;;;;;13.60;8.40;;;20.00;99.90;;;;;;6271883;22;20010;-80
2023/06/28 09:18:31;;;;;;;10.05;8.23;;;20.00;99.90;;;;;;6244098;22;20006;-82
2023/06/28 09:20:56;;;;;;;13.02;7.60;;;20.10;99.90;;;;;;6243121;22;20008;-81
2023/06/28 09:23:26;;;;;;;13.68;8.05;;;20.10;99.90;;;;;;6241852;22;20004;-81
2023/06/28 09:25:52;;;;;;;14.65;7.68;;;20.20;99.90;;;;;;6243640;22;20114;-81
2023/06/28 09:28:19;;;;;;;11.90;7.90;;;20.20;99.90;;;;;;6271543;22;20077;-81
2023/06/28 09:30:54;;;;;;;11.00;7.78;;;20.20;99.90;;;;;;6244552;22;20451;-81
2023/06/28 09:33:20;;;;;;;11.15;8.23;;;20.30;99.90;;;;;;6244650;22;20049;-80
2023/06/28 09:35:46;;;;;;;13.20;8.07;;;20.40;99.90;;;;;;6244747;22;20003;-80
2023/06/28 09:38:11;;;;;;;15.38;8.65;;;20.40;99.90;;;;;;6244156;22;20497;-80
2023/06/28 09:40:37;;;;;;;12.23;8.38;;;20.50;99.90;;;;;;6244640;22;20011;-80
2023/06/28 09:43:03;;;;;;;11.60;8.20;;;20.50;99.90;;;;;;6244250;22;20086;-79
2023/06/28 09:45:31;;;;;;;14.85;7.57;;;20.50;99.90;;;;;;6243050;22;20087;-80
2023/06/28 09:47:59;;;;;;;7.88;5.68;;;20.50;99.90;;;;;;6243564;22;20014;-82
2023/06/28 09:50:33;;;;;;;13.88;7.65;;;20.40;99.80;;;;;;6271192;22;20004;-81
2023/06/28 09:52:59;;;;;;;13.15;7.15;;;20.40;99.80;;;;;;6270731;22;19996;-80
2023/06/28 09:55:25;;;;;;;12.23;7.93;;;20.30;99.80;;;;;;6272061;22;20006;-82
2023/06/28 09:57:51;;;;;;;11.65;7.93;;;20.30;99.80;;;;;;6246225;22;20000;-82
2023/06/28 10:00:18;;;;;;;12.57;9.02;;;20.40;99.90;;;;;;6271282;22;20004;-82
2023/06/28 10:02:46;;;;;;;11.60;8.80;;;20.40;99.90;;;;;;6243912;22;20035;-79
2023/06/28 10:05:12;;;;;;;13.15;8.30;;;20.40;99.90;;;;;;6243252;22;20447;-79
2023/06/28 10:07:39;;;;;;;14.32;9.65;;;20.50;99.90;;;;;;6244653;22;20444;-80
2023/06/28 10:10:07;;;;;;;11.95;8.55;;;20.60;99.90;;;;;;6273278;22;20003;-80
2023/06/28 10:12:34;;;;;;;12.70;8.35;;;20.60;99.80;;;;;;6271365;22;20022;-80
2023/06/28 10:15:06;;;;;;;13.85;9.10;;;20.70;99.70;;;;;;6270614;22;20093;-80
2023/06/28 10:17:34;;;;;;;13.60;8.80;;;20.70;99.50;;;;;;6243818;22;19999;-80
2023/06/28 10:20:00;;;;;;;14.75;8.32;;;20.80;99.60;;;;;;6243106;22;20069;-80
2023/06/28 10:22:26;;;;;;;15.13;8.38;;;20.90;99.50;;;;;;6270965;22;20022;-79
2023/06/28 10:24:53;;;;;;;13.88;8.75;;;21.00;99.30;;;;;;6271259;22;20046;-80
2023/06/28 10:27:20;;;;;;;15.13;8.82;;;21.20;99.30;;;;;;6243840;22;20035;-79
2023/06/28 10:29:52;;;;;;;13.85;9.68;;;21.30;99.00;;;;;;6270865;22;20008;-79
2023/06/28 10:32:18;;;;;;;13.15;9.20;;;21.40;98.70;;;;;;6271069;22;20401;-79
2023/06/28 10:34:47;;;;;;;13.25;8.23;;;21.50;98.40;;;;;;6243369;22;20091;-79
2023/06/28 10:37:13;;;;;;;12.48;9.35;;;21.60;98.20;;;;;;6271212;22;20010;-80
2023/06/28 10:39:39;;;;;;;8.20;6.93;;;21.70;98.00;;;;;;6272198;22;20083;-80
2023/06/28 10:42:05;;;;;;;10.38;7.85;;;21.90;98.20;;;;;;6245627;22;20410;-80
2023/06/28 10:44:31;;;;;;;13.32;8.65;;;22.00;97.70;;;;;;6245432;22;20026;-79
2023/06/28 10:47:13;;;;;;;11.73;9.18;;;22.20;97.40;;;;;;6245962;22;20003;-79
2023/06/28 10:49:42;;;;;;;10.95;8.43;;;22.40;96.90;;;;;;6245642;22;20007;-80
2023/06/28 10:52:18;;;;;;;14.43;9.63;;;22.50;96.70;;;;;;6274787;22;20003;-80
2023/06/28 10:54:44;;;;;;;13.70;8.77;;;22.70;96.60;;;;;;6275017;22;20006;-80
2023/06/28 10:57:10;;;;;;;13.10;8.27;;;22.90;96.40;;;;;;6246024;22;20094;-76
2023/06/28 10:59:40;;;;;;;16.05;10.02;;;23.10;96.30;;;;;;6244764;22;20008;-80
2023/06/28 11:02:05;;;;;;;12.98;8.65;;;23.10;95.70;;;;;;6244199;22;20437;-80
2023/06/28 11:04:31;;;;;;;12.32;8.77;;;23.20;95.70;;;;;;6243862;22;20015;-80
2023/06/28 11:07:03;;;;;;;8.63;7.50;;;23.40;95.20;;;;;;6271929;22;20095;-79
2023/06/28 11:09:29;;;;;;;12.07;8.40;;;23.50;95.10;;;;;;6272588;22;20085;-80
2023/06/28 11:11:59;;;;;;;13.45;9.57;;;23.60;94.60;;;;;;6246115;22;20000;-80
2023/06/28 11:14:25;;;;;;;9.38;7.97;;;23.70;94.60;;;;;;6274368;22;20007;-80
2023/06/28 11:16:53;;;;;;;8.10;7.10;;;23.90;94.30;;;;;;6274088;22;20078;-81
2023/06/28 11:19:22;;;;;;;9.88;7.72;;;24.10;94.20;;;;;;6245228;22;20011;-81
2023/06/28 11:21:58;;;;;;;13.02;8.93;;;24.20;93.90;;;;;;6273506;22;20007;-80
2023/06/28 11:24:45;;;;;;;10.60;8.45;;;24.30;93.70;;;;;;6246440;22;20008;-81
2023/06/28 11:27:17;;;;;;;16.10;9.10;;;24.40;93.50;;;;;;6245097;22;20433;-80
2023/06/28 11:30:00;;;;;;;11.48;8.05;;;24.60;93.60;;;;;;6273389;22;20053;-81
2023/06/28 11:32:27;;;;;;;12.77;8.23;;;24.80;93.30;;;;;;6272702;22;19999;-80
2023/06/28 11:34:56;;;;;;;12.75;8.15;;;24.90;93.20;;;;;;6245600;22;20006;-80
2023/06/28 11:37:23;;;;;;;9.60;7.90;;;25.00;93.00;;;;;;6245917;22;20078;-80
2023/06/28 11:39:51;;;;;;;11.60;8.15;;;25.20;92.60;;;;;;6273061;22;20030;-80
2023/06/28 11:42:20;;;;;;;14.07;9.13;;;25.30;92.10;;;;;;6245164;22;20008;-80
2023/06/28 11:44:47;;;;;;;17.10;9.80;;;25.30;92.00;;;;;;6245907;22;20025;-81
2023/06/28 11:47:17;;;;;;;10.02;8.02;;;25.30;91.60;;;;;;6244744;22;20485;-81
2023/06/28 11:49:43;;;;;;;13.65;8.48;;;25.30;91.70;;;;;;6245761;22;20015;-80
2023/06/28 11:52:09;;;;;;;10.73;8.73;;;25.30;91.50;;;;;;6245055;22;20041;-81
2023/06/28 11:54:35;;;;;;;11.52;9.10;;;25.20;91.20;;;;;;6245567;22;20379;-81
2023/06/28 11:57:01;;;;;;;10.65;9.38;;;25.10;91.10;;;;;;6272499;22;20003;-80
2023/06/28 11:59:29;;;;;;;8.57;7.60;;;25.00;91.00;;;;;;6245186;22;20665;-80
2023/06/28 12:02:05;;;;;;;9.90;8.45;;;24.90;91.00;;;;;;6244717;22;20004;-81
2023/06/28 12:04:33;;;;;;;13.93;8.80;;;24.90;91.30;;;;;;6272759;22;20334;-81
2023/06/28 12:07:04;;;;;;;10.93;9.70;;;24.90;91.20;;;;;;6245369;22;20004;-80
2023/06/28 12:09:31;;;;;;;12.93;8.73;;;25.00;91.40;;;;;;6245473;22;20409;-81
2023/06/28 12:11:59;;;;;;;11.98;9.52;;;25.10;91.50;;;;;;6272401;22;20340;-79
2023/06/28 12:14:27;;;;;;;11.68;9.05;;;25.20;91.10;;;;;;6245700;22;20007;-80
2023/06/28 12:16:53;;;;;;;14.90;8.60;;;25.40;90.80;;;;;;6272462;22;20029;-80
2023/06/28 12:19:20;;;;;;;14.20;9.52;;;25.50;90.80;;;;;;6272641;22;20405;-80
2023/06/28 12:21:46;;;;;;;12.43;10.20;;;25.70;90.90;;;;;;6245599;22;20003;-81
2023/06/28 12:24:21;;;;;;;18.08;10.73;;;25.80;90.50;;;;;;6273948;22;20559;-80
2023/06/28 12:26:59;;;;;;;15.15;10.68;;;25.80;90.50;;;;;;6247266;22;20027;-81
2023/06/28 12:29:29;;;;;;;14.75;9.88;;;25.70;90.20;;;;;;6272564;22;20003;-81
2023/06/28 12:32:03;;;;;;;12.02;8.80;;;25.60;90.30;;;;;;6244413;22;20061;-81
2023/06/28 12:34:34;;;;;;;11.10;9.00;;;25.60;90.50;;;;;;6245894;22;20002;-81
2023/06/28 12:37:10;;;;;;;14.48;10.27;;;25.50;90.50;;;;;;6246324;22;20078;-80